Time;durP1;ratioP1;P1;durP2;ratioP2;P2;SDS_P1;SDS_P2;PMS_P1;PMS_P2;Temp;Humidity;BMP_temperature;BMP_pressure;BME280_temperature;BME280_humidity;BME280_pressure;Samples;Min_cycle;Max_cycle;Signal;HPM_P1;HPM_P2
2021/08/17 00:00:09;;;;;;;6.35;2.53;;;21.60;67.20;;;;;;4194228;28;20052;-67
2021/08/17 00:02:31;;;;;;;6.15;2.50;;;21.50;66.90;;;;;;4207422;28;20497;-68
2021/08/17 00:04:53;;;;;;;7.53;2.28;;;21.60;66.60;;;;;;4207918;28;20051;-69
2021/08/17 00:07:16;;;;;;;10.18;2.95;;;21.50;66.80;;;;;;4207725;28;20405;-70
2021/08/17 00:09:38;;;;;;;9.63;2.97;;;21.50;67.10;;;;;;4208027;28;20413;-71
2021/08/17 00:12:02;;;;;;;10.25;3.30;;;21.50;65.70;;;;;;4207785;28;20046;-71
2021/08/17 00:14:25;;;;;;;5.10;2.55;;;21.50;66.70;;;;;;4208063;28;20055;-71
2021/08/17 00:16:47;;;;;;;6.32;2.20;;;21.50;67.70;;;;;;4207942;28;20098;-71
2021/08/17 00:19:09;;;;;;;7.15;2.25;;;21.50;67.40;;;;;;4208150;28;20040;-71
2021/08/17 00:21:32;;;;;;;10.82;2.85;;;21.50;66.90;;;;;;4207720;28;20048;-72
2021/08/17 00:23:54;;;;;;;9.25;2.83;;;21.50;67.00;;;;;;4207630;28;20565;-69
2021/08/17 00:26:16;;;;;;;7.75;2.42;;;21.50;67.10;;;;;;4207815;28;20048;-69
2021/08/17 00:28:38;;;;;;;12.20;3.35;;;21.50;67.30;;;;;;4207940;28;20113;-69
2021/08/17 00:31:01;;;;;;;7.70;2.80;;;21.50;67.50;;;;;;4207361;28;20055;-69
2021/08/17 00:33:26;;;;;;;8.52;2.40;;;21.50;66.70;;;;;;4207916;28;20044;-69
2021/08/17 00:35:49;;;;;;;8.52;2.58;;;21.50;67.20;;;;;;4207726;28;20501;-69
2021/08/17 00:38:10;;;;;;;9.05;2.70;;;21.40;67.30;;;;;;4207970;28;20047;-69
2021/08/17 00:40:33;;;;;;;9.95;2.72;;;21.40;68.50;;;;;;4207723;28;20136;-68
2021/08/17 00:42:55;;;;;;;8.60;2.78;;;21.40;67.20;;;;;;4207777;28;20533;-68
2021/08/17 00:45:21;;;;;;;10.38;2.80;;;21.40;67.30;;;;;;4207797;28;20055;-67
2021/08/17 00:47:44;;;;;;;7.15;2.28;;;21.40;66.90;;;;;;4191052;28;20106;-70
2021/08/17 00:50:07;;;;;;;6.88;2.80;;;21.40;67.00;;;;;;4197686;28;20127;-71
2021/08/17 00:52:29;;;;;;;6.90;2.30;;;21.40;67.00;;;;;;4207756;28;20097;-71
2021/08/17 00:54:53;;;;;;;7.35;1.90;;;21.40;67.00;;;;;;4208051;28;20051;-71
2021/08/17 00:57:15;;;;;;;5.75;2.22;;;21.40;66.70;;;;;;4207601;28;20486;-71
2021/08/17 00:59:37;;;;;;;6.15;2.25;;;21.40;66.90;;;;;;4191177;28;20041;-71
2021/08/17 01:02:00;;;;;;;5.25;1.83;;;21.40;67.10;;;;;;4191016;28;20052;-71
2021/08/17 01:04:23;;;;;;;7.15;1.77;;;21.40;66.90;;;;;;4190955;28;20040;-71
2021/08/17 01:06:45;;;;;;;5.38;1.88;;;21.40;66.90;;;;;;4203181;28;20089;-71
2021/08/17 01:09:08;;;;;;;6.00;2.10;;;21.40;66.90;;;;;;4207413;28;20097;-71
2021/08/17 01:11:31;;;;;;;6.22;2.20;;;21.30;66.50;;;;;;4207181;28;20040;-71
2021/08/17 01:13:53;;;;;;;3.90;1.75;;;21.30;66.70;;;;;;4207744;28;20048;-71
2021/08/17 01:16:15;;;;;;;7.38;2.45;;;21.30;65.90;;;;;;4207322;28;20166;-71
2021/08/17 01:18:37;;;;;;;6.55;1.80;;;21.30;66.10;;;;;;4207560;28;20491;-72
2021/08/17 01:21:05;;;;;;;5.10;2.10;;;21.30;66.60;;;;;;4207173;28;20044;-71
2021/08/17 01:23:31;;;;;;;3.70;1.60;;;21.30;66.20;;;;;;4206924;28;20044;-70
2021/08/17 01:25:54;;;;;;;8.45;2.22;;;21.30;66.20;;;;;;4207360;28;20691;-70
2021/08/17 01:28:16;;;;;;;7.70;2.53;;;21.30;65.60;;;;;;4207400;28;20059;-71
2021/08/17 01:30:38;;;;;;;3.55;1.80;;;21.30;65.80;;;;;;4207011;28;20044;-70
2021/08/17 01:33:00;;;;;;;5.57;1.83;;;21.30;66.30;;;;;;4207315;28;20044;-70
2021/08/17 01:35:22;;;;;;;5.00;1.95;;;21.30;66.30;;;;;;4207762;28;20055;-71
2021/08/17 01:37:45;;;;;;;5.80;2.00;;;21.30;66.10;;;;;;4210353;28;20097;-70
2021/08/17 01:40:09;;;;;;;6.07;1.85;;;21.30;66.90;;;;;;4210312;28;20068;-70
2021/08/17 01:42:33;;;;;;;7.15;1.88;;;21.30;66.20;;;;;;4209706;28;20489;-70
2021/08/17 01:44:56;;;;;;;4.30;1.77;;;21.30;66.20;;;;;;4210140;28;20040;-70
2021/08/17 01:47:18;;;;;;;7.93;2.00;;;21.30;65.10;;;;;;4210636;28;20066;-70
2021/08/17 01:49:41;;;;;;;5.25;2.22;;;21.30;65.70;;;;;;4210280;28;20040;-70
2021/08/17 01:52:03;;;;;;;5.93;2.10;;;21.30;66.00;;;;;;4209981;28;20036;-70
2021/08/17 01:54:25;;;;;;;4.20;2.10;;;21.30;66.30;;;;;;4210278;28;20513;-70
2021/08/17 01:56:48;;;;;;;5.63;2.05;;;21.30;66.30;;;;;;4209990;28;20097;-71
2021/08/17 01:59:13;;;;;;;9.27;2.20;;;21.30;66.30;;;;;;4210131;28;20494;-71
2021/08/17 02:01:35;;;;;;;4.95;2.00;;;21.20;65.80;;;;;;4195140;28;20530;-70
2021/08/17 02:03:57;;;;;;;8.25;2.42;;;21.20;66.20;;;;;;4209815;28;20105;-70
2021/08/17 02:06:19;;;;;;;6.65;2.30;;;21.20;66.30;;;;;;4209936;28;20048;-70
2021/08/17 02:08:41;;;;;;;6.88;1.83;;;21.20;66.10;;;;;;4209936;28;20048;-70
2021/08/17 02:11:04;;;;;;;6.97;2.03;;;21.20;65.90;;;;;;4209507;28;20048;-70
2021/08/17 02:13:27;;;;;;;5.95;2.08;;;21.20;66.10;;;;;;4209930;28;20517;-70
2021/08/17 02:15:51;;;;;;;6.85;2.25;;;21.20;66.30;;;;;;4209906;28;20071;-71
2021/08/17 02:18:14;;;;;;;4.82;2.10;;;21.20;66.00;;;;;;4209874;28;20513;-72
2021/08/17 02:20:36;;;;;;;9.45;2.05;;;21.20;66.70;;;;;;4208235;28;20422;-71
2021/08/17 02:22:58;;;;;;;5.78;2.35;;;21.20;66.50;;;;;;4209429;28;20055;-72
2021/08/17 02:25:20;;;;;;;7.53;1.95;;;21.20;67.40;;;;;;4209350;28;20059;-72
2021/08/17 02:27:42;;;;;;;8.38;2.33;;;21.20;66.50;;;;;;4209837;28;20058;-71
2021/08/17 02:30:06;;;;;;;6.35;2.30;;;21.20;66.80;;;;;;4209041;28;20055;-72
2021/08/17 02:32:29;;;;;;;4.05;1.73;;;21.20;66.40;;;;;;4209351;28;21208;-72
2021/08/17 02:34:51;;;;;;;6.40;1.95;;;21.20;66.10;;;;;;4209558;28;20060;-72
2021/08/17 02:37:13;;;;;;;5.55;1.80;;;21.10;65.90;;;;;;4208448;28;20123;-71
2021/08/17 02:39:35;;;;;;;5.15;1.85;;;21.20;66.20;;;;;;4209324;28;20147;-72
2021/08/17 02:41:57;;;;;;;6.10;1.90;;;21.10;65.80;;;;;;4209496;28;20056;-72
2021/08/17 02:44:19;;;;;;;6.85;2.13;;;21.10;66.40;;;;;;4209296;28;20094;-71
2021/08/17 02:46:40;;;;;;;5.75;2.25;;;21.10;66.40;;;;;;4207587;28;20469;-72
2021/08/17 02:49:05;;;;;;;5.15;1.98;;;21.10;66.40;;;;;;4209375;28;20089;-72
2021/08/17 02:51:27;;;;;;;7.63;1.98;;;21.10;66.70;;;;;;4192370;28;20098;-72
2021/08/17 02:53:49;;;;;;;5.32;2.25;;;21.10;66.10;;;;;;4192793;28;20513;-72
2021/08/17 02:56:11;;;;;;;6.07;1.85;;;21.10;65.90;;;;;;4206555;28;20044;-71
2021/08/17 02:58:33;;;;;;;5.15;1.83;;;21.10;66.00;;;;;;4209208;28;20518;-72
2021/08/17 03:00:55;;;;;;;8.68;2.10;;;21.10;66.10;;;;;;4208321;28;20048;-68
2021/08/17 03:03:18;;;;;;;7.13;1.95;;;21.10;66.10;;;;;;4208666;28;20064;-68
2021/08/17 03:05:41;;;;;;;3.83;1.52;;;21.10;66.50;;;;;;4208854;28;20048;-68
2021/08/17 03:08:03;;;;;;;5.57;2.08;;;21.10;66.10;;;;;;4209109;28;20064;-69
2021/08/17 03:10:25;;;;;;;5.55;1.83;;;21.10;66.50;;;;;;4208415;28;20052;-70
2021/08/17 03:12:47;;;;;;;8.98;1.70;;;21.10;65.60;;;;;;4209237;28;20068;-69
2021/08/17 03:15:10;;;;;;;7.05;1.88;;;21.10;65.80;;;;;;4209076;28;20152;-69
2021/08/17 03:17:33;;;;;;;4.50;2.17;;;21.10;65.50;;;;;;4208955;28;20048;-69
2021/08/17 03:19:55;;;;;;;4.65;2.20;;;21.10;66.10;;;;;;4208429;28;20063;-66
2021/08/17 03:22:18;;;;;;;4.72;1.88;;;21.10;67.20;;;;;;4194796;28;20044;-69
2021/08/17 03:24:40;;;;;;;5.95;2.28;;;21.00;66.40;;;;;;4194069;28;20135;-69
2021/08/17 03:27:02;;;;;;;4.63;1.88;;;21.10;67.50;;;;;;4208872;28;20478;-69
2021/08/17 03:29:24;;;;;;;7.22;2.10;;;21.00;66.30;;;;;;4208394;28;20097;-70
2021/08/17 03:31:46;;;;;;;6.43;1.98;;;21.00;66.20;;;;;;4191754;28;20430;-69
2021/08/17 03:34:08;;;;;;;5.20;2.03;;;21.00;66.40;;;;;;4191860;28;20048;-69
2021/08/17 03:36:30;;;;;;;4.22;1.83;;;21.00;66.20;;;;;;4191919;28;20497;-70
2021/08/17 03:38:54;;;;;;;5.05;1.92;;;21.00;66.20;;;;;;4191739;28;20071;-70
2021/08/17 03:41:16;;;;;;;11.07;2.88;;;21.00;66.40;;;;;;4207697;28;20097;-70
2021/08/17 03:43:38;;;;;;;7.53;2.22;;;21.00;65.70;;;;;;4208473;28;20048;-71
2021/08/17 03:46:01;;;;;;;4.47;1.92;;;21.00;66.30;;;;;;4208294;28;20473;-71
2021/08/17 03:48:23;;;;;;;7.38;2.10;;;21.00;66.50;;;;;;4208604;28;20079;-70
2021/08/17 03:50:46;;;;;;;4.38;1.45;;;21.00;66.00;;;;;;4208160;28;20116;-70
2021/08/17 03:53:08;;;;;;;6.90;1.92;;;21.00;65.80;;;;;;4208110;28;20493;-69
2021/08/17 03:55:31;;;;;;;8.73;2.03;;;21.00;65.90;;;;;;4207782;28;20048;-70
2021/08/17 03:57:54;;;;;;;4.70;1.73;;;21.00;65.50;;;;;;4208540;28;20087;-70
2021/08/17 04:00:19;;;;;;;3.90;1.85;;;21.00;65.50;;;;;;4207880;28;20048;-71
2021/08/17 04:02:42;;;;;;;4.30;1.40;;;20.90;65.80;;;;;;4207677;28;20478;-71
2021/08/17 04:05:08;;;;;;;5.05;1.80;;;20.90;65.50;;;;;;4207924;28;20717;-70
2021/08/17 04:07:30;;;;;;;6.40;1.90;;;20.90;65.80;;;;;;4207921;28;20051;-71
2021/08/17 04:09:52;;;;;;;4.80;1.70;;;20.90;66.10;;;;;;4207903;28;20451;-71
2021/08/17 04:12:16;;;;;;;5.45;1.63;;;20.90;65.80;;;;;;4208220;28;20055;-68
2021/08/17 04:14:38;;;;;;;3.63;1.65;;;20.90;65.80;;;;;;4208131;28;20410;-71
2021/08/17 04:17:00;;;;;;;4.85;1.80;;;20.90;65.90;;;;;;4207775;28;20467;-70
2021/08/17 04:19:22;;;;;;;4.40;1.60;;;20.90;65.70;;;;;;4207930;28;20101;-70
2021/08/17 04:21:44;;;;;;;5.53;2.17;;;20.90;65.90;;;;;;4207987;28;20040;-69
2021/08/17 04:24:06;;;;;;;8.93;2.38;;;20.90;65.50;;;;;;4207750;28;20097;-68
2021/08/17 04:26:28;;;;;;;6.57;1.80;;;20.90;66.30;;;;;;4191365;28;20076;-69
2021/08/17 04:28:51;;;;;;;5.82;1.95;;;20.90;66.40;;;;;;4191183;28;20054;-69
2021/08/17 04:31:13;;;;;;;7.68;1.80;;;20.90;66.10;;;;;;4194982;28;20074;-68
2021/08/17 04:33:35;;;;;;;5.78;1.83;;;20.90;66.60;;;;;;4208465;28;20154;-69
2021/08/17 04:35:58;;;;;;;6.30;1.83;;;20.90;65.90;;;;;;4207908;28;20039;-68
2021/08/17 04:38:19;;;;;;;4.50;1.65;;;20.90;66.10;;;;;;4208141;28;20064;-68
2021/08/17 04:40:41;;;;;;;5.43;1.48;;;20.90;65.80;;;;;;4207613;28;20064;-68
2021/08/17 04:43:03;;;;;;;3.38;1.63;;;20.90;65.70;;;;;;4208064;28;20055;-67
2021/08/17 04:45:27;;;;;;;5.22;1.75;;;20.90;65.60;;;;;;4207598;28;20040;-68
2021/08/17 04:47:52;;;;;;;5.78;2.30;;;20.90;65.80;;;;;;4207450;28;20109;-67
2021/08/17 04:50:14;;;;;;;5.57;1.90;;;20.90;66.70;;;;;;4208026;28;20051;-68
2021/08/17 04:52:37;;;;;;;4.60;1.67;;;20.90;65.40;;;;;;4207635;28;20052;-68
2021/08/17 04:54:59;;;;;;;5.53;1.90;;;20.90;65.90;;;;;;4207343;28;20084;-68
2021/08/17 04:57:21;;;;;;;5.57;1.85;;;20.90;65.90;;;;;;4207905;28;20513;-68
2021/08/17 04:59:42;;;;;;;5.78;1.70;;;20.90;65.90;;;;;;4207331;28;20044;-68
2021/08/17 05:02:06;;;;;;;7.18;2.17;;;20.90;65.80;;;;;;4207596;28;20134;-68
2021/08/17 05:04:28;;;;;;;3.65;1.75;;;20.90;65.90;;;;;;4207019;28;20444;-67
2021/08/17 05:06:51;;;;;;;8.90;2.28;;;20.90;66.30;;;;;;4207681;28;20123;-68
2021/08/17 05:09:12;;;;;;;6.15;2.28;;;20.90;65.80;;;;;;4207578;28;20510;-69
2021/08/17 05:11:35;;;;;;;4.25;1.58;;;20.90;65.90;;;;;;4193373;28;20060;-70
2021/08/17 05:13:57;;;;;;;6.40;1.73;;;20.80;65.90;;;;;;4195855;28;20048;-65
2021/08/17 05:16:19;;;;;;;5.78;2.42;;;20.80;66.20;;;;;;4210804;28;20429;-70
2021/08/17 05:18:44;;;;;;;8.40;2.30;;;20.90;65.80;;;;;;4210746;28;20124;-69
2021/08/17 05:21:06;;;;;;;4.57;1.75;;;20.90;65.90;;;;;;4210889;28;20048;-70
2021/08/17 05:23:29;;;;;;;7.53;2.33;;;20.90;66.00;;;;;;4210741;28;20044;-70
2021/08/17 05:25:52;;;;;;;7.53;2.17;;;20.90;66.00;;;;;;4210664;28;20047;-70
2021/08/17 05:28:14;;;;;;;3.58;2.10;;;20.80;65.90;;;;;;4210578;28;20040;-71
2021/08/17 05:30:36;;;;;;;7.53;2.58;;;20.90;66.00;;;;;;4210477;28;20047;-71
2021/08/17 05:32:58;;;;;;;2.72;1.95;;;20.90;66.00;;;;;;4210311;28;20067;-70
2021/08/17 05:35:21;;;;;;;6.15;2.35;;;20.90;66.60;;;;;;4210304;28;20490;-70
2021/08/17 05:37:43;;;;;;;5.47;2.15;;;20.90;66.60;;;;;;4210306;28;20093;-70
2021/08/17 05:40:07;;;;;;;5.78;2.38;;;20.90;67.00;;;;;;4210277;28;20055;-72
2021/08/17 05:42:29;;;;;;;5.18;2.60;;;20.90;67.20;;;;;;4210261;28;20056;-68
2021/08/17 05:44:52;;;;;;;8.45;2.42;;;20.90;67.50;;;;;;4210420;28;20072;-68
2021/08/17 05:47:14;;;;;;;4.72;2.05;;;20.90;67.00;;;;;;4210073;28;20486;-68
2021/08/17 05:49:36;;;;;;;5.00;2.55;;;20.90;66.80;;;;;;4210094;28;20563;-68
2021/08/17 05:52:00;;;;;;;6.55;2.55;;;20.90;66.70;;;;;;4210005;28;20553;-67
2021/08/17 05:54:23;;;;;;;5.70;2.85;;;20.90;66.70;;;;;;4198734;28;20470;-68
2021/08/17 05:56:45;;;;;;;9.20;2.75;;;20.90;67.00;;;;;;4205386;28;20544;-69
2021/08/17 05:59:07;;;;;;;8.88;2.53;;;20.90;66.50;;;;;;4193594;28;20048;-68
2021/08/17 06:01:30;;;;;;;6.90;2.75;;;20.90;67.00;;;;;;4204676;28;20510;-68
2021/08/17 06:03:53;;;;;;;5.85;1.98;;;20.90;67.10;;;;;;4194204;28;20052;-69
2021/08/17 06:06:15;;;;;;;6.18;2.70;;;20.90;67.80;;;;;;4210179;28;20051;-69
2021/08/17 06:08:38;;;;;;;8.07;2.60;;;20.90;66.70;;;;;;4207726;28;20047;-70
2021/08/17 06:11:01;;;;;;;6.95;2.90;;;20.90;66.80;;;;;;4208602;28;20044;-67
2021/08/17 06:13:25;;;;;;;4.47;2.60;;;20.90;66.80;;;;;;4210122;28;20048;-67
2021/08/17 06:15:48;;;;;;;4.47;2.35;;;20.90;67.10;;;;;;4210091;28;20055;-66
2021/08/17 06:18:10;;;;;;;9.85;3.28;;;20.90;67.00;;;;;;4193379;28;20076;-68
2021/08/17 06:20:32;;;;;;;6.80;3.38;;;20.90;67.30;;;;;;4201576;28;20136;-66
2021/08/17 06:22:55;;;;;;;5.65;3.05;;;20.90;67.10;;;;;;4203795;28;20130;-68
2021/08/17 06:25:18;;;;;;;5.30;3.53;;;20.90;67.30;;;;;;4206573;28;20147;-67
2021/08/17 06:27:40;;;;;;;7.65;3.25;;;20.90;67.30;;;;;;4199541;28;20040;-67
2021/08/17 06:30:03;;;;;;;8.38;3.45;;;20.90;67.20;;;;;;4204142;28;20047;-66
2021/08/17 06:32:45;;;;;;;6.75;3.17;;;20.90;67.20;;;;;;4208019;28;20048;-66
2021/08/17 06:35:08;;;;;;;4.35;2.70;;;20.90;67.20;;;;;;4209172;28;20045;-67
2021/08/17 06:37:31;;;;;;;9.27;3.25;;;20.90;67.50;;;;;;4209473;28;20048;-66
2021/08/17 06:39:53;;;;;;;5.35;3.15;;;20.90;67.50;;;;;;4209019;28;20051;-66
2021/08/17 06:42:16;;;;;;;4.45;3.05;;;20.80;67.40;;;;;;4207829;28;20123;-67
2021/08/17 06:44:38;;;;;;;9.57;3.85;;;20.80;67.40;;;;;;4207820;28;20047;-67
2021/08/17 06:47:00;;;;;;;8.40;3.30;;;20.80;68.40;;;;;;4208770;28;20486;-66
2021/08/17 06:49:23;;;;;;;4.22;2.80;;;20.80;67.50;;;;;;4209298;28;20402;-67
2021/08/17 06:51:45;;;;;;;6.32;2.90;;;20.80;67.50;;;;;;4209031;28;20055;-67
2021/08/17 06:54:07;;;;;;;7.03;3.35;;;20.80;67.80;;;;;;4209178;28;20055;-68
2021/08/17 06:56:29;;;;;;;7.40;3.20;;;20.80;68.80;;;;;;4209306;28;20047;-67
2021/08/17 06:58:53;;;;;;;8.30;3.17;;;20.80;68.00;;;;;;4208655;28;20493;-66
2021/08/17 07:01:15;;;;;;;9.68;3.50;;;20.80;68.90;;;;;;4209198;28;20136;-68
2021/08/17 07:03:38;;;;;;;7.22;3.13;;;20.80;68.00;;;;;;4208715;28;20047;-66
2021/08/17 07:06:00;;;;;;;8.23;2.90;;;20.80;68.30;;;;;;4192477;28;20094;-66
2021/08/17 07:08:22;;;;;;;7.10;3.40;;;20.80;74.70;;;;;;4192457;28;20059;-68
2021/08/17 07:10:45;;;;;;;6.65;3.38;;;20.80;74.20;;;;;;4192515;28;20048;-68
2021/08/17 07:13:16;;;;;;;8.20;2.80;;;20.80;73.30;;;;;;4208165;28;20064;-67
2021/08/17 07:15:40;;;;;;;5.47;2.55;;;20.80;71.70;;;;;;4197155;28;20052;-68
2021/08/17 07:18:03;;;;;;;5.03;3.10;;;20.90;71.20;;;;;;4191924;28;20464;-66
2021/08/17 07:20:25;;;;;;;5.93;3.20;;;20.80;70.90;;;;;;4192208;28;20640;-67
2021/08/17 07:22:47;;;;;;;6.47;2.92;;;20.80;70.20;;;;;;4205202;28;20460;-66
2021/08/17 07:25:10;;;;;;;3.83;2.72;;;20.90;70.40;;;;;;4208589;28;20055;-66
2021/08/17 07:27:32;;;;;;;9.27;3.47;;;20.80;70.20;;;;;;4208709;28;20146;-66
2021/08/17 07:29:54;;;;;;;5.28;2.80;;;20.90;69.70;;;;;;4208595;28;20126;-65
2021/08/17 07:32:18;;;;;;;5.10;2.92;;;20.80;69.90;;;;;;4200687;28;20513;-64
2021/08/17 07:34:40;;;;;;;5.88;3.58;;;20.90;70.20;;;;;;4200146;28;20052;-65
2021/08/17 07:37:02;;;;;;;6.35;3.42;;;20.90;70.00;;;;;;4208644;28;20051;-66
2021/08/17 07:39:25;;;;;;;3.97;2.90;;;20.90;69.80;;;;;;4208330;28;20387;-67
2021/08/17 07:41:47;;;;;;;6.50;2.78;;;20.90;69.50;;;;;;4208430;28;20047;-65
2021/08/17 07:44:09;;;;;;;8.50;3.65;;;20.90;68.90;;;;;;4207845;28;20126;-65
2021/08/17 07:46:32;;;;;;;5.85;2.70;;;20.90;69.30;;;;;;4202919;28;20561;-65
2021/08/17 07:48:56;;;;;;;4.97;2.75;;;20.90;69.00;;;;;;4208334;28;20486;-66
2021/08/17 07:51:18;;;;;;;6.25;2.83;;;20.90;68.80;;;;;;4208278;28;20051;-67
2021/08/17 07:53:40;;;;;;;5.57;2.85;;;20.90;68.60;;;;;;4206783;28;20048;-67
2021/08/17 07:56:02;;;;;;;3.88;2.55;;;20.90;68.40;;;;;;4208072;28;20105;-67
2021/08/17 07:58:24;;;;;;;4.22;2.70;;;20.90;68.60;;;;;;4207381;28;20094;-64
2021/08/17 08:00:46;;;;;;;5.60;2.53;;;20.90;68.50;;;;;;4204592;28;20881;-67
2021/08/17 08:03:09;;;;;;;5.53;2.67;;;20.90;68.50;;;;;;4207949;28;20117;-66
2021/08/17 08:05:32;;;;;;;3.22;2.28;;;20.90;68.00;;;;;;4207949;28;20055;-65
2021/08/17 08:07:55;;;;;;;4.30;2.78;;;20.90;68.00;;;;;;4208025;28;20052;-65
2021/08/17 08:10:17;;;;;;;3.75;2.50;;;20.90;68.00;;;;;;4202770;28;20059;-68
2021/08/17 08:12:39;;;;;;;4.05;2.53;;;20.90;67.90;;;;;;4197000;28;20058;-66
2021/08/17 08:15:01;;;;;;;4.93;2.40;;;21.00;68.10;;;;;;4207716;28;20048;-68
2021/08/17 08:17:23;;;;;;;4.57;3.05;;;20.90;68.10;;;;;;4202554;28;20052;-67
2021/08/17 08:19:45;;;;;;;7.30;3.05;;;20.90;67.90;;;;;;4191121;28;20048;-68
2021/08/17 08:22:09;;;;;;;5.63;2.80;;;20.90;67.90;;;;;;4191202;28;20726;-68
2021/08/17 08:24:32;;;;;;;6.07;3.20;;;20.90;67.80;;;;;;4196588;28;20126;-67
2021/08/17 08:26:54;;;;;;;5.63;2.67;;;20.90;67.80;;;;;;4207802;28;20044;-66
2021/08/17 08:29:16;;;;;;;7.30;3.08;;;21.00;68.20;;;;;;4207934;28;20410;-65
2021/08/17 08:31:38;;;;;;;6.15;2.90;;;20.90;68.10;;;;;;4208066;28;20051;-66
2021/08/17 08:34:00;;;;;;;4.90;3.13;;;20.90;68.10;;;;;;4207155;28;20055;-67
2021/08/17 08:36:23;;;;;;;9.02;2.75;;;20.90;68.10;;;;;;4206559;28;20131;-66
2021/08/17 08:38:47;;;;;;;4.47;2.80;;;20.90;68.20;;;;;;4207603;28;20399;-66
2021/08/17 08:41:15;;;;;;;4.72;2.97;;;20.90;68.10;;;;;;4190054;28;20044;-69
2021/08/17 08:43:38;;;;;;;6.70;2.80;;;21.00;68.30;;;;;;4203102;28;20105;-65
2021/08/17 08:46:00;;;;;;;6.40;3.40;;;20.90;68.20;;;;;;4209281;28;20518;-63
2021/08/17 08:48:23;;;;;;;5.13;3.08;;;21.00;68.40;;;;;;4211248;28;20152;-64
2021/08/17 08:50:46;;;;;;;7.60;3.47;;;21.00;68.40;;;;;;4210853;28;20523;-64
2021/08/17 08:53:09;;;;;;;5.22;3.10;;;21.00;68.50;;;;;;4210574;28;20051;-65
2021/08/17 08:55:33;;;;;;;8.13;3.60;;;21.00;68.60;;;;;;4209061;28;20071;-64
2021/08/17 08:57:55;;;;;;;4.10;3.00;;;21.00;68.60;;;;;;4210879;28;20039;-65
2021/08/17 09:00:17;;;;;;;5.40;3.42;;;21.00;68.70;;;;;;4210245;28;20127;-66
2021/08/17 09:02:39;;;;;;;5.25;3.42;;;21.00;68.70;;;;;;4210206;28;20052;-63
2021/08/17 09:05:02;;;;;;;6.97;3.08;;;21.00;68.70;;;;;;4206967;28;20052;-65
2021/08/17 09:07:36;;;;;;;6.93;3.40;;;21.00;68.70;;;;;;4210593;28;20048;-64
2021/08/17 09:10:01;;;;;;;4.63;3.78;;;21.00;68.80;;;;;;4210431;28;20102;-65
2021/08/17 09:12:34;;;;;;;6.55;3.90;;;21.00;68.70;;;;;;4210316;28;20066;-63
2021/08/17 09:15:06;;;;;;;4.30;3.47;;;21.10;69.70;;;;;;4209989;28;20048;-65
2021/08/17 09:17:28;;;;;;;7.50;3.58;;;21.10;68.90;;;;;;4210527;28;20055;-65
2021/08/17 09:19:50;;;;;;;7.57;4.50;;;21.10;68.90;;;;;;4210469;28;20729;-66
2021/08/17 09:22:16;;;;;;;8.57;4.25;;;21.10;69.00;;;;;;4210571;28;20051;-64
2021/08/17 09:24:38;;;;;;;8.98;4.57;;;21.10;68.90;;;;;;4210135;28;20044;-65
2021/08/17 09:27:02;;;;;;;5.63;4.30;;;21.10;69.70;;;;;;4210382;28;20044;-65
2021/08/17 09:29:32;;;;;;;6.97;4.32;;;21.20;68.70;;;;;;4210451;28;20068;-67
2021/08/17 09:31:57;;;;;;;9.25;4.30;;;21.20;68.50;;;;;;4210135;28;20047;-68
2021/08/17 09:34:21;;;;;;;4.57;3.83;;;21.20;68.50;;;;;;4209846;28;20048;-65
2021/08/17 09:36:45;;;;;;;5.85;4.40;;;21.20;68.50;;;;;;4210640;28;20486;-65
2021/08/17 09:39:07;;;;;;;8.48;4.40;;;21.20;68.50;;;;;;4210271;28;20148;-65
2021/08/17 09:41:30;;;;;;;5.40;3.72;;;21.20;69.30;;;;;;4210178;28;20056;-66
2021/08/17 09:43:56;;;;;;;7.60;4.50;;;21.30;68.40;;;;;;4209356;28;20405;-65
2021/08/17 09:46:27;;;;;;;6.32;4.53;;;21.30;69.20;;;;;;4210278;28;20063;-65
2021/08/17 09:48:49;;;;;;;7.72;4.82;;;21.30;68.30;;;;;;4198133;28;20052;-66
2021/08/17 09:51:11;;;;;;;5.93;4.55;;;21.30;69.20;;;;;;4209912;28;20044;-72
2021/08/17 09:53:33;;;;;;;13.43;4.93;;;21.20;68.40;;;;;;4210043;28;20048;-65
2021/08/17 09:55:57;;;;;;;9.95;5.35;;;21.30;68.80;;;;;;4193207;28;20087;-64
2021/08/17 09:58:25;;;;;;;7.07;4.65;;;21.30;68.90;;;;;;4197391;28;20125;-64
2021/08/17 10:00:48;;;;;;;7.97;5.20;;;21.40;68.80;;;;;;4209826;28;20052;-63
2021/08/17 10:03:12;;;;;;;8.02;5.00;;;21.40;68.70;;;;;;4193212;28;20053;-64
2021/08/17 10:05:36;;;;;;;7.53;5.30;;;21.40;68.50;;;;;;4193229;28;20479;-64
2021/08/17 10:07:58;;;;;;;7.28;5.97;;;21.30;68.40;;;;;;4192977;28;20052;-64
2021/08/17 10:10:23;;;;;;;7.57;5.35;;;21.30;68.50;;;;;;4208029;28;20070;-64
2021/08/17 10:12:45;;;;;;;7.85;5.75;;;21.30;68.50;;;;;;4209206;28;20452;-64
2021/08/17 10:15:09;;;;;;;7.45;5.80;;;21.30;68.60;;;;;;4210104;28;20051;-64
2021/08/17 10:17:31;;;;;;;9.27;5.45;;;21.30;68.70;;;;;;4209744;28;20052;-64
2021/08/17 10:19:54;;;;;;;9.05;6.10;;;21.30;68.90;;;;;;4209562;28;20113;-64
2021/08/17 10:22:17;;;;;;;8.75;5.70;;;21.30;69.10;;;;;;4209759;28;20055;-64
2021/08/17 10:24:41;;;;;;;8.82;6.45;;;21.30;69.30;;;;;;4209810;28;20067;-64
2021/08/17 10:27:22;;;;;;;8.35;5.65;;;21.30;69.50;;;;;;4209902;28;20044;-64
2021/08/17 10:30:10;;;;;;;7.40;5.90;;;21.30;69.80;;;;;;4209149;28;20044;-64
2021/08/17 10:32:44;;;;;;;7.18;5.70;;;21.30;69.80;;;;;;4209649;28;20505;-64
2021/08/17 10:35:28;;;;;;;9.40;5.68;;;21.30;69.50;;;;;;4209710;28;20052;-64
2021/08/17 10:37:50;;;;;;;9.35;5.47;;;21.30;69.30;;;;;;4209526;28;20123;-64
2021/08/17 10:40:15;;;;;;;9.98;5.97;;;21.30;69.10;;;;;;4209587;28;20044;-64
2021/08/17 10:42:52;;;;;;;8.77;5.45;;;21.30;68.90;;;;;;4209479;28;20559;-64
2021/08/17 10:45:28;;;;;;;9.60;5.80;;;21.30;68.40;;;;;;4209177;28;20490;-64
2021/08/17 10:47:50;;;;;;;10.52;5.85;;;21.30;68.70;;;;;;4209126;28;20502;-64
2021/08/17 10:50:31;;;;;;;7.45;5.60;;;21.30;68.80;;;;;;4208882;28;20129;-64
2021/08/17 10:52:53;;;;;;;;;;;21.30;68.90;;;;;;4209886;28;20040;-64
2021/08/17 10:55:25;;;;;;;8.73;5.45;;;21.30;69.10;;;;;;4209077;28;19924;-64
2021/08/17 10:57:52;;;;;;;8.10;6.20;;;21.30;69.30;;;;;;4208739;28;20426;-63
2021/08/17 11:00:49;;;;;;;8.98;5.25;;;21.30;69.20;;;;;;4208767;28;20051;-64
2021/08/17 11:03:11;;;;;;;6.05;5.13;;;21.30;69.10;;;;;;4209052;28;20145;-64
2021/08/17 11:05:51;;;;;;;8.38;5.45;;;21.30;69.20;;;;;;4209516;28;20072;-63
2021/08/17 11:08:35;;;;;;;7.57;5.40;;;21.30;68.90;;;;;;4208227;28;20071;-64
2021/08/17 11:10:58;;;;;;;7.88;5.88;;;21.30;68.90;;;;;;4209186;28;20478;-64
2021/08/17 11:13:23;;;;;;;8.88;5.78;;;21.30;68.50;;;;;;4208754;28;20418;-64
2021/08/17 11:16:06;;;;;;;6.72;5.78;;;21.30;68.00;;;;;;4208637;28;20127;-64
2021/08/17 11:18:28;;;;;;;7.03;5.60;;;21.30;67.70;;;;;;4208682;28;20048;-64
2021/08/17 11:20:58;;;;;;;6.03;5.43;;;21.30;67.80;;;;;;4192175;28;20553;-64
2021/08/17 11:23:20;;;;;;;7.70;6.05;;;21.30;67.90;;;;;;4191781;28;20052;-64
2021/08/17 11:25:43;;;;;;;7.00;5.57;;;21.30;68.00;;;;;;4192247;28;20040;-64
2021/08/17 11:28:05;;;;;;;8.18;5.32;;;21.30;68.20;;;;;;4190601;28;20518;-64
2021/08/17 11:30:27;;;;;;;6.18;4.85;;;21.30;68.10;;;;;;4207854;28;20048;-64
2021/08/17 11:32:57;;;;;;;11.35;5.65;;;21.30;68.10;;;;;;4208592;28;20135;-64
2021/08/17 11:35:21;;;;;;;7.07;5.10;;;21.30;68.10;;;;;;4208394;28;20064;-64
2021/08/17 11:37:46;;;;;;;7.47;5.20;;;21.30;68.20;;;;;;4208662;28;20510;-64
2021/08/17 11:40:11;;;;;;;9.32;5.50;;;21.30;68.30;;;;;;4208836;28;20452;-64
2021/08/17 11:42:34;;;;;;;7.68;5.60;;;21.30;68.10;;;;;;4209211;28;20433;-64
2021/08/17 11:44:58;;;;;;;6.22;5.25;;;21.30;68.10;;;;;;4208669;28;20059;-64
2021/08/17 11:47:21;;;;;;;8.15;4.95;;;21.30;67.30;;;;;;4208528;28;20473;-64
2021/08/17 11:49:45;;;;;;;8.32;5.32;;;21.30;67.30;;;;;;4208721;28;20048;-64
2021/08/17 11:52:10;;;;;;;5.85;4.78;;;21.30;67.40;;;;;;4207647;28;20474;-64
2021/08/17 11:54:35;;;;;;;6.40;5.30;;;21.30;67.60;;;;;;4208025;28;20044;-64
2021/08/17 11:57:05;;;;;;;8.73;5.18;;;21.30;67.50;;;;;;4208323;28;20135;-64
2021/08/17 11:59:39;;;;;;;5.68;4.88;;;21.30;67.80;;;;;;4208192;28;20489;-64
2021/08/17 12:02:01;;;;;;;5.15;4.60;;;21.30;67.20;;;;;;4208543;28;20043;-64
2021/08/17 12:04:24;;;;;;;6.13;4.97;;;21.30;67.70;;;;;;4208291;28;20062;-64
2021/08/17 12:07:12;;;;;;;7.28;5.18;;;21.30;67.80;;;;;;4208260;28;20048;-64
2021/08/17 12:09:38;;;;;;;8.18;4.70;;;21.30;67.90;;;;;;4207722;28;20055;-64
2021/08/17 12:12:00;;;;;;;6.38;4.65;;;21.30;68.00;;;;;;4208109;28;20051;-64
2021/08/17 12:14:23;;;;;;;5.95;4.22;;;21.30;68.20;;;;;;4208367;28;20055;-64
2021/08/17 12:16:53;;;;;;;6.85;4.80;;;21.30;67.70;;;;;;4207610;28;20054;-64
2021/08/17 12:19:18;;;;;;;5.38;4.05;;;21.30;68.00;;;;;;4191504;28;20052;-64
2021/08/17 12:21:39;;;;;;;6.10;4.35;;;21.30;67.70;;;;;;4191189;28;20048;-64
2021/08/17 12:24:03;;;;;;;4.50;4.10;;;21.30;68.00;;;;;;4197196;28;20055;-63
2021/08/17 12:26:32;;;;;;;8.43;5.07;;;21.30;68.10;;;;;;4208359;28;20125;-64
2021/08/17 12:28:55;;;;;;;8.60;4.03;;;21.30;67.90;;;;;;4208284;28;20051;-64